Time;durP1;ratioP1;P1;durP2;ratioP2;P2;SDS_P1;SDS_P2;PMS_P1;PMS_P2;Temp;Humidity;BMP_temperature;BMP_pressure;BME280_temperature;BME280_humidity;BME280_pressure;Samples;Min_cycle;Max_cycle;Signal;HPM_P1;HPM_P2
2021/11/17 02:27:58;;;;;;;19.63;9.15;;;;;13.10;101754.00;;;;5034522;28;20223;-82
2021/11/17 02:30:39;;;;;;;19.35;8.48;;;;;13.10;101756.00;;;;5044297;28;20717;-81
2021/11/17 02:33:20;;;;;;;17.98;8.32;;;;;13.10;101753.00;;;;5052053;28;20188;-81
2021/11/17 02:36:07;;;;;;;18.02;8.90;;;;;13.20;101753.00;;;;5036222;28;20203;-81
2021/11/17 02:38:48;;;;;;;19.63;9.15;;;;;13.10;101749.00;;;;5045714;28;20573;-81
2021/11/17 02:41:37;;;;;;;18.92;9.52;;;;;13.20;101755.00;;;;5034644;28;20210;-81
2021/11/17 02:44:22;;;;;;;17.08;9.23;;;;;13.10;101755.00;;;;5033490;28;20203;-81
2021/11/17 02:47:06;;;;;;;18.00;8.63;;;;;13.20;101757.00;;;;5041330;28;20253;-82
2021/11/17 02:49:49;;;;;;;20.33;9.50;;;;;13.10;101758.00;;;;5040852;28;20580;-81
2021/11/17 02:52:38;;;;;;;18.13;9.27;;;;;13.10;101765.00;;;;5045092;28;20230;-81
2021/11/17 02:55:22;;;;;;;19.15;9.27;;;;;13.10;101758.00;;;;5044818;28;20199;-82
2021/11/17 02:58:15;;;;;;;16.33;8.18;;;;;13.10;101759.00;;;;5046803;28;20226;-81
2021/11/17 03:01:06;;;;;;;17.35;8.65;;;;;13.10;101757.00;;;;5045180;28;20566;-81
2021/11/17 03:03:48;;;;;;;17.35;8.32;;;;;13.10;101762.00;;;;5038230;28;20204;-81
2021/11/17 03:06:42;;;;;;;18.55;9.13;;;;;13.10;101756.00;;;;5041938;28;20196;-81
2021/11/17 03:09:25;;;;;;;18.35;9.02;;;;;13.10;101754.00;;;;5040993;28;20211;-81
2021/11/17 03:12:11;;;;;;;18.50;8.93;;;;;13.10;101739.00;;;;5031397;28;20203;-81
2021/11/17 03:15:00;;;;;;;17.85;8.80;;;;;13.10;101741.00;;;;5039627;28;20198;-81
2021/11/17 03:17:56;;;;;;;17.73;8.15;;;;;13.10;101733.00;;;;5030986;28;20232;-81
2021/11/17 03:20:42;;;;;;;20.00;9.45;;;;;13.20;101728.00;;;;5034418;28;20202;-82
2021/11/17 03:23:26;;;;;;;19.40;9.55;;;;;13.20;101739.00;;;;5046758;28;20223;-81
2021/11/17 03:26:06;;;;;;;14.70;8.00;;;;;13.20;101753.00;;;;5036613;28;20200;-81
2021/11/17 03:28:49;;;;;;;17.10;8.68;;;;;13.20;101758.00;;;;5048657;28;20196;-81
2021/11/17 03:31:36;;;;;;;18.88;8.25;;;;;13.20;101744.00;;;;5041304;28;20257;-81
2021/11/17 03:34:39;;;;;;;18.10;8.27;;;;;13.10;101741.00;;;;5035885;28;20195;-82
2021/11/17 03:37:25;;;;;;;19.02;8.50;;;;;13.10;101740.00;;;;5040924;28;20219;-81
2021/11/17 03:40:09;;;;;;;15.20;8.50;;;;;13.10;101734.00;;;;5048960;28;20203;-81
2021/11/17 03:43:04;;;;;;;17.48;8.43;;;;;13.10;101741.00;;;;5043459;28;20218;-81
2021/11/17 03:45:57;;;;;;;19.33;8.57;;;;;13.10;101742.00;;;;5032595;28;20196;-81
2021/11/17 03:48:42;;;;;;;18.13;8.15;;;;;13.10;101746.00;;;;5040857;28;20207;-81
2021/11/17 03:51:34;;;;;;;19.90;9.77;;;;;13.10;101740.00;;;;5043553;28;20235;-81
2021/11/17 03:54:18;;;;;;;18.00;8.43;;;;;13.20;101739.00;;;;5039551;28;20204;-80
2021/11/17 03:56:58;;;;;;;16.80;8.00;;;;;13.20;101733.00;;;;5043721;28;20224;-81
2021/11/17 03:59:39;;;;;;;20.50;8.60;;;;;13.20;101746.00;;;;5051272;28;20198;-81
2021/11/17 04:02:32;;;;;;;17.02;9.02;;;;;13.20;101739.00;;;;5051643;28;20199;-81
2021/11/17 04:05:16;;;;;;;18.42;8.95;;;;;13.10;101749.00;;;;5036140;28;20200;-82
2021/11/17 04:08:04;;;;;;;18.88;8.60;;;;;13.10;101742.00;;;;5039650;28;20204;-82
2021/11/17 04:11:00;;;;;;;17.88;8.90;;;;;13.10;101738.00;;;;5045994;28;20195;-82
2021/11/17 04:13:36;;;;;;;19.10;9.23;;;;;13.20;101737.00;;;;5033010;28;20569;-82
2021/11/17 04:16:17;;;;;;;18.38;8.23;;;;;13.20;101734.00;;;;5040209;28;20199;-81
2021/11/17 04:18:56;;;;;;;15.90;8.13;;;;;13.20;101741.00;;;;5052670;28;20223;-82
2021/11/17 04:21:42;;;;;;;19.35;9.27;;;;;13.20;101743.00;;;;5044561;28;20578;-82
2021/11/17 04:24:33;;;;;;;18.05;8.55;;;;;13.10;101736.00;;;;5035547;28;20927;-82
2021/11/17 04:27:19;;;;;;;19.98;8.65;;;;;13.20;101720.00;;;;5036261;28;20207;-82
2021/11/17 04:30:10;;;;;;;17.73;8.23;;;;;13.20;101721.00;;;;5039559;28;20376;-82
2021/11/17 04:32:50;;;;;;;16.10;7.75;;;;;13.20;101714.00;;;;5035948;28;20207;-82
2021/11/17 04:35:41;;;;;;;17.33;8.05;;;;;13.20;101697.00;;;;5046191;28;20195;-82
2021/11/17 04:38:34;;;;;;;14.45;7.03;;;;;13.20;101701.00;;;;5042967;28;20223;-81
2021/11/17 04:41:27;;;;;;;16.63;7.82;;;;;13.10;101703.00;;;;5034700;28;20201;-82
2021/11/17 04:44:11;;;;;;;16.65;8.55;;;;;13.10;101700.00;;;;5040794;28;20203;-82
2021/11/17 04:46:55;;;;;;;18.48;8.70;;;;;13.10;101711.00;;;;5042797;28;20203;-81
2021/11/17 04:49:40;;;;;;;19.17;8.75;;;;;13.10;101698.00;;;;5044379;28;20207;-81
2021/11/17 04:52:28;;;;;;;21.13;8.85;;;;;13.10;101698.00;;;;5033364;28;20228;-82
2021/11/17 04:55:19;;;;;;;19.77;9.77;;;;;13.00;101688.00;;;;5052205;28;20203;-81
2021/11/17 04:58:07;;;;;;;19.98;8.75;;;;;13.00;101686.00;;;;5032248;28;20230;-81
2021/11/17 05:00:57;;;;;;;17.27;8.18;;;;;13.00;101690.00;;;;5036266;28;20203;-82
2021/11/17 05:03:43;;;;;;;19.05;9.00;;;;;13.00;101688.00;;;;5041170;28;20195;-81
2021/11/17 05:06:28;;;;;;;17.95;8.65;;;;;13.00;101695.00;;;;5044466;28;20211;-81
2021/11/17 05:09:04;;;;;;;19.23;9.60;;;;;13.00;101710.00;;;;5043926;28;20195;-82
2021/11/17 05:11:46;;;;;;;21.48;9.32;;;;;13.00;101708.00;;;;5037473;28;20286;-82
2021/11/17 05:14:22;;;;;;;20.27;9.80;;;;;13.00;101711.00;;;;5050892;28;20199;-82
2021/11/17 05:17:04;;;;;;;18.85;9.07;;;;;13.00;101707.00;;;;5040893;28;20200;-82
2021/11/17 05:19:39;;;;;;;17.90;7.43;;;;;13.10;101707.00;;;;5048821;28;20199;-82
2021/11/17 05:22:25;;;;;;;19.65;8.88;;;;;13.10;101697.00;;;;5048914;28;20192;-82
2021/11/17 05:25:16;;;;;;;19.23;8.68;;;;;13.10;101699.00;;;;5049646;28;20550;-83
2021/11/17 05:28:05;;;;;;;17.02;8.13;;;;;13.10;101695.00;;;;5036140;28;20200;-82
2021/11/17 05:30:50;;;;;;;18.42;8.98;;;;;13.10;101697.00;;;;5038904;28;20716;-82
2021/11/17 05:33:30;;;;;;;16.80;7.88;;;;;13.20;101692.00;;;;5043311;28;20195;-82
2021/11/17 05:36:10;;;;;;;17.60;8.45;;;;;13.20;101697.00;;;;5034904;28;20195;-82
2021/11/17 05:38:48;;;;;;;16.27;8.57;;;;;13.20;101701.00;;;;5030941;28;20227;-82
2021/11/17 05:41:37;;;;;;;16.15;8.45;;;;;13.20;101708.00;;;;5033391;28;20188;-82
2021/11/17 05:44:18;;;;;;;18.38;8.43;;;;;13.30;101698.00;;;;5040914;28;20192;-82
2021/11/17 05:47:00;;;;;;;19.20;8.50;;;;;13.30;101697.00;;;;5041727;28;20235;-83
2021/11/17 05:49:39;;;;;;;18.67;8.75;;;;;13.30;101702.00;;;;5037614;28;20200;-82
2021/11/17 05:52:21;;;;;;;24.20;8.35;;;;;13.40;101712.00;;;;5039092;28;20223;-82
2021/11/17 05:55:21;;;;;;;18.00;7.80;;;;;13.40;101710.00;;;;5042682;28;20202;-82
2021/11/17 05:58:04;;;;;;;17.25;8.73;;;;;13.40;101706.00;;;;5000295;28;20223;-82
2021/11/17 06:00:51;;;;;;;16.85;7.95;;;;;13.40;101714.00;;;;5031191;28;20508;-82
2021/11/17 06:03:31;;;;;;;17.90;8.50;;;;;13.40;101714.00;;;;5038851;28;20197;-82
2021/11/17 06:05:58;;;;;;;16.50;8.55;;;;;13.50;101706.00;;;;5039777;28;20211;-82
2021/11/17 06:08:25;;;;;;;18.63;9.25;;;;;13.50;101711.00;;;;5045343;28;20295;-82
2021/11/17 06:10:56;;;;;;;19.17;9.20;;;;;13.50;101710.00;;;;5037863;28;20214;-82
2021/11/17 06:13:24;;;;;;;14.02;8.13;;;;;13.60;101710.00;;;;5041228;28;20203;-82
2021/11/17 06:15:52;;;;;;;21.15;9.50;;;;;13.60;101716.00;;;;5037744;28;20216;-81
2021/11/17 06:18:24;;;;;;;19.15;10.02;;;;;13.60;101711.00;;;;5033677;28;20227;-82
2021/11/17 06:20:52;;;;;;;17.95;9.35;;;;;13.60;101729.00;;;;5037732;28;20214;-82
2021/11/17 06:23:24;;;;;;;17.65;8.43;;;;;13.60;101727.00;;;;5034797;28;20212;-82
2021/11/17 06:25:53;;;;;;;20.70;9.93;;;;;13.60;101732.00;;;;5037205;28;20227;-81
2021/11/17 06:28:23;;;;;;;16.65;7.93;;;;;13.60;101736.00;;;;5038619;28;20188;-82
2021/11/17 06:30:53;;;;;;;17.73;8.02;;;;;13.60;101736.00;;;;5029974;28;20219;-81
2021/11/17 06:33:21;;;;;;;23.42;10.48;;;;;13.70;101739.00;;;;5035470;28;20200;-81
2021/11/17 06:35:48;;;;;;;20.70;10.18;;;;;13.70;101738.00;;;;5035864;28;20200;-81
2021/11/17 06:38:18;;;;;;;17.83;9.07;;;;;13.70;101742.00;;;;5037892;28;20226;-81
2021/11/17 06:40:48;;;;;;;20.27;9.35;;;;;13.70;101735.00;;;;5037281;28;20230;-81
2021/11/17 06:43:19;;;;;;;15.23;8.38;;;;;13.70;101741.00;;;;5042018;28;20192;-83
2021/11/17 06:45:47;;;;;;;20.20;9.80;;;;;13.70;101743.00;;;;5032642;28;20555;-83
2021/11/17 06:48:15;;;;;;;20.00;9.43;;;;;13.70;101746.00;;;;5035580;28;20220;-83
2021/11/17 06:50:45;;;;;;;19.77;9.32;;;;;13.70;101736.00;;;;5033861;28;20228;-80
2021/11/17 06:53:12;;;;;;;18.50;9.00;;;;;13.70;101730.00;;;;5037850;28;20204;-81
2021/11/17 06:55:40;;;;;;;20.52;9.95;;;;;13.70;101735.00;;;;5040159;28;20206;-82
2021/11/17 06:58:07;;;;;;;19.15;9.02;;;;;13.70;101738.00;;;;5038998;28;20212;-81
2021/11/17 07:00:39;;;;;;;19.55;8.85;;;;;13.70;101731.00;;;;5041419;28;20204;-81
2021/11/17 07:03:07;;;;;;;20.73;8.73;;;;;13.80;101731.00;;;;5032529;28;20200;-83
2021/11/17 07:05:34;;;;;;;19.20;9.43;;;;;13.80;101730.00;;;;5039822;28;20208;-83
2021/11/17 07:08:03;;;;;;;19.60;9.13;;;;;13.80;101728.00;;;;5045107;28;20200;-83
2021/11/17 07:10:32;;;;;;;21.08;9.07;;;;;13.80;101743.00;;;;5037381;28;20303;-84
2021/11/17 07:13:00;;;;;;;19.67;9.60;;;;;13.80;101746.00;;;;5036137;28;20208;-83
2021/11/17 07:15:30;;;;;;;20.25;8.82;;;;;13.80;101749.00;;;;5037323;28;20203;-84
2021/11/17 07:17:59;;;;;;;19.48;10.52;;;;;13.80;101750.00;;;;5038477;28;20585;-84
2021/11/17 07:20:27;;;;;;;21.63;9.65;;;;;13.90;101758.00;;;;5033638;28;20207;-83
2021/11/17 07:22:54;;;;;;;19.90;9.52;;;;;13.90;101755.00;;;;5048125;28;20235;-84
2021/11/17 07:25:24;;;;;;;19.23;10.13;;;;;13.90;101756.00;;;;5044336;28;20587;-83
2021/11/17 07:27:52;;;;;;;20.73;9.48;;;;;13.90;101756.00;;;;5039646;28;20210;-84
2021/11/17 07:30:22;;;;;;;24.13;10.80;;;;;13.90;101760.00;;;;5043752;28;20673;-85
2021/11/17 07:32:50;;;;;;;22.55;9.65;;;;;13.90;101763.00;;;;5042260;28;20695;-83
2021/11/17 07:35:22;;;;;;;19.00;9.25;;;;;13.90;101777.00;;;;5047870;28;20199;-83
2021/11/17 07:37:50;;;;;;;22.45;9.95;;;;;14.00;101765.00;;;;5048273;28;20223;-84
2021/11/17 07:40:17;;;;;;;17.77;9.10;;;;;14.00;101774.00;;;;5048456;28;20204;-85
2021/11/17 07:42:45;;;;;;;21.05;10.50;;;;;14.00;101772.00;;;;5033868;28;20207;-85
2021/11/17 07:45:13;;;;;;;23.17;10.25;;;;;14.00;101768.00;;;;5048140;28;20550;-83
2021/11/17 07:47:41;;;;;;;21.15;9.85;;;;;14.00;101770.00;;;;5048755;28;20196;-85
2021/11/17 07:50:09;;;;;;;20.77;9.93;;;;;14.10;101774.00;;;;5042228;28;20208;-83
2021/11/17 07:52:38;;;;;;;22.02;10.40;;;;;14.10;101774.00;;;;5046036;28;20312;-82
2021/11/17 07:55:08;;;;;;;25.02;11.80;;;;;14.10;101779.00;;;;5044634;28;20559;-83
2021/11/17 07:57:36;;;;;;;20.83;10.90;;;;;14.20;101778.00;;;;5038104;28;20663;-83
2021/11/17 08:00:07;;;;;;;20.75;10.13;;;;;14.20;101772.00;;;;5048728;28;20212;-85
2021/11/17 08:02:35;;;;;;;21.50;9.93;;;;;14.20;101776.00;;;;5036277;28;20199;-85
2021/11/17 08:05:03;;;;;;;21.98;11.13;;;;;14.30;101777.00;;;;5045814;28;20655;-84
2021/11/17 08:07:31;;;;;;;22.02;11.65;;;;;14.30;101778.00;;;;5041989;28;20211;-83
2021/11/17 08:10:00;;;;;;;22.45;10.38;;;;;14.30;101782.00;;;;5044504;28;20345;-83
2021/11/17 08:12:28;;;;;;;21.95;10.75;;;;;14.30;101787.00;;;;5046041;28;20200;-85
2021/11/17 08:14:57;;;;;;;21.88;10.70;;;;;14.40;101782.00;;;;5041766;28;20195;-83
2021/11/17 08:17:24;;;;;;;21.23;9.88;;;;;14.40;101787.00;;;;5030674;28;20251;-83
2021/11/17 08:19:51;;;;;;;21.88;10.48;;;;;14.40;101786.00;;;;5038494;28;20216;-83
2021/11/17 08:22:18;;;;;;;24.98;11.50;;;;;14.40;101788.00;;;;5047528;28;20195;-82
2021/11/17 08:24:46;;;;;;;23.80;11.75;;;;;14.40;101790.00;;;;5037665;28;20215;-83
2021/11/17 08:27:19;;;;;;;22.88;10.65;;;;;14.40;101786.00;;;;5039366;28;20211;-83
2021/11/17 08:29:48;;;;;;;19.15;9.82;;;;;14.50;101792.00;;;;5034163;28;20199;-81
2021/11/17 08:32:16;;;;;;;23.55;12.43;;;;;14.50;101789.00;;;;5034846;28;20203;-81
2021/11/17 08:34:43;;;;;;;23.85;10.82;;;;;14.60;101794.00;;;;5044171;28;20203;-81
2021/11/17 08:37:12;;;;;;;27.25;12.80;;;;;14.60;101795.00;;;;5043243;28;20214;-80
2021/11/17 08:39:40;;;;;;;24.38;11.75;;;;;14.60;101795.00;;;;5045451;28;20228;-80
2021/11/17 08:42:08;;;;;;;27.50;12.13;;;;;14.60;101797.00;;;;5038081;28;20204;-81
2021/11/17 08:44:38;;;;;;;22.33;10.10;;;;;14.60;101794.00;;;;5038408;28;20200;-81
2021/11/17 08:47:06;;;;;;;26.55;12.70;;;;;14.70;101798.00;;;;5045317;28;20204;-82
2021/11/17 08:49:35;;;;;;;26.17;13.07;;;;;14.70;101795.00;;;;5040340;28;20654;-80
2021/11/17 08:52:03;;;;;;;26.65;11.77;;;;;14.70;101793.00;;;;5034986;28;20251;-80
2021/11/17 08:54:30;;;;;;;25.77;12.50;;;;;14.70;101798.00;;;;5036077;28;20197;-80
2021/11/17 08:56:58;;;;;;;26.38;12.93;;;;;14.80;101800.00;;;;5036257;28;20199;-80
2021/11/17 08:59:26;;;;;;;24.48;11.85;;;;;14.80;101801.00;;;;5040074;28;20254;-80
2021/11/17 09:01:56;;;;;;;21.35;10.77;;;;;14.80;101796.00;;;;5035914;28;20681;-80
2021/11/17 09:04:24;;;;;;;21.95;11.52;;;;;14.80;101808.00;;;;5036456;28;20548;-81
2021/11/17 09:06:51;;;;;;;18.42;10.43;;;;;14.80;101809.00;;;;5041345;28;20199;-80
2021/11/17 09:09:20;;;;;;;23.55;12.02;;;;;14.90;101815.00;;;;5034247;28;20251;-79
2021/11/17 09:11:47;;;;;;;23.02;10.73;;;;;14.90;101812.00;;;;5050909;28;20207;-79
2021/11/17 09:14:15;;;;;;;21.25;11.43;;;;;14.90;101815.00;;;;5049404;28;20207;-79
2021/11/17 09:16:42;;;;;;;24.88;11.95;;;;;14.90;101808.00;;;;5041673;28;20253;-79
2021/11/17 09:19:11;;;;;;;22.65;11.57;;;;;14.90;101816.00;;;;5035840;28;20224;-80
2021/11/17 09:21:41;;;;;;;22.67;11.23;;;;;15.00;101817.00;;;;5044147;28;20211;-80
2021/11/17 09:24:10;;;;;;;24.27;11.25;;;;;15.00;101816.00;;;;5034086;28;20208;-81
2021/11/17 09:26:41;;;;;;;27.85;12.43;;;;;15.00;101828.00;;;;5040029;28;20195;-81
2021/11/17 09:29:08;;;;;;;24.35;12.10;;;;;15.10;101823.00;;;;5041473;28;20211;-82
2021/11/17 09:31:37;;;;;;;23.02;11.75;;;;;15.10;101836.00;;;;5050702;28;20211;-82
2021/11/17 09:34:05;;;;;;;28.30;12.38;;;;;15.10;101837.00;;;;5041722;28;20193;-81
2021/11/17 09:36:35;;;;;;;24.90;11.43;;;;;15.10;101844.00;;;;5038541;28;20208;-83
2021/11/17 09:39:04;;;;;;;24.52;11.90;;;;;15.20;101843.00;;;;5050694;28;20314;-81
2021/11/17 09:41:34;;;;;;;21.45;11.57;;;;;15.20;101841.00;;;;5047998;28;20203;-82
2021/11/17 09:44:05;;;;;;;22.77;10.68;;;;;15.20;101842.00;;;;5034616;28;20196;-81
2021/11/17 09:46:34;;;;;;;20.58;11.07;;;;;15.30;101845.00;;;;5036217;28;20204;-82
2021/11/17 09:49:06;;;;;;;22.65;11.13;;;;;15.30;101847.00;;;;5039964;28;20204;-81
2021/11/17 09:51:40;;;;;;;25.80;11.98;;;;;15.40;101850.00;;;;5049362;28;20231;-82
2021/11/17 09:54:12;;;;;;;27.08;12.25;;;;;15.40;101854.00;;;;5048655;28;20600;-82
2021/11/17 09:56:44;;;;;;;22.52;11.20;;;;;15.40;101870.00;;;;5049534;28;20206;-81
2021/11/17 09:59:23;;;;;;;28.65;12.90;;;;;15.50;101854.00;;;;5045376;28;20223;-82
2021/11/17 10:01:55;;;;;;;19.27;10.85;;;;;15.50;101855.00;;;;5047400;28;20199;-82
2021/11/17 10:04:26;;;;;;;24.45;11.77;;;;;15.50;101860.00;;;;5042719;28;20200;-81
2021/11/17 10:07:30;;;;;;;20.35;10.85;;;;;15.60;101858.00;;;;5038513;28;20204;-82
2021/11/17 10:13:00;;;;;;;25.08;11.20;;;;;15.70;101869.00;;;;5020055;28;20333;-80
2021/11/17 10:15:34;;;;;;;21.85;10.38;;;;;15.70;101865.00;;;;5049170;28;20234;-82
2021/11/17 10:18:24;;;;;;;24.30;12.05;;;;;15.80;101870.00;;;;5049142;28;20661;-82
2021/11/17 10:21:01;;;;;;;25.08;12.05;;;;;15.80;101864.00;;;;5050038;28;20199;-82
2021/11/17 10:23:32;;;;;;;23.38;10.77;;;;;15.90;101870.00;;;;5039717;28;20216;-82
2021/11/17 10:26:09;;;;;;;20.10;10.63;;;;;15.90;101865.00;;;;5046149;28;20198;-82
2021/11/17 10:28:47;;;;;;;22.70;10.77;;;;;16.00;101863.00;;;;5039432;28;20200;-82
2021/11/17 10:31:17;;;;;;;18.55;10.65;;;;;16.10;101871.00;;;;5049587;28;20195;-82
2021/11/17 10:33:56;;;;;;;19.48;10.00;;;;;16.20;101869.00;;;;5049509;28;20198;-82
2021/11/17 10:36:27;;;;;;;22.27;10.52;;;;;16.30;101870.00;;;;5036589;28;20204;-83
2021/11/17 10:39:03;;;;;;;20.25;10.27;;;;;16.30;101874.00;;;;5041751;28;20224;-81
2021/11/17 10:41:32;;;;;;;16.55;9.55;;;;;16.40;101870.00;;;;5048524;28;20191;-82
2021/11/17 10:44:03;;;;;;;15.88;9.32;;;;;16.40;101870.00;;;;5047924;28;20199;-82
2021/11/17 10:46:32;;;;;;;22.20;10.23;;;;;16.50;101874.00;;;;5046797;28;20314;-82
2021/11/17 10:49:08;;;;;;;19.10;10.43;;;;;16.60;101873.00;;;;5041649;28;20200;-82
2021/11/17 10:51:52;;;;;;;15.48;8.82;;;;;16.70;101872.00;;;;5043314;28;20242;-83
2021/11/17 10:54:23;;;;;;;19.63;9.30;;;;;16.70;101875.00;;;;5044566;28;20804;-83
2021/11/17 10:57:03;;;;;;;19.15;9.57;;;;;16.70;101880.00;;;;5046666;28;20204;-83
2021/11/17 10:59:31;;;;;;;21.42;11.20;;;;;16.90;101887.00;;;;5043752;28;20261;-83
2021/11/17 11:01:59;;;;;;;16.20;9.48;;;;;16.90;101895.00;;;;5048276;28;20202;-83
2021/11/17 11:04:31;;;;;;;19.27;9.85;;;;;17.00;101887.00;;;;5036596;28;22173;-82
2021/11/17 11:07:02;;;;;;;16.70;9.98;;;;;17.00;101892.00;;;;5039670;28;20561;-81
2021/11/17 11:09:36;;;;;;;18.95;9.38;;;;;17.10;101890.00;;;;5041332;28;20187;-80
2021/11/17 11:12:05;;;;;;;17.15;9.32;;;;;17.20;101886.00;;;;5040586;28;20200;-80
2021/11/17 11:14:36;;;;;;;19.15;9.45;;;;;17.30;101882.00;;;;5039100;28;20202;-81
2021/11/17 11:17:27;;;;;;;16.83;9.48;;;;;17.30;101885.00;;;;5046832;28;20320;-81
2021/11/17 11:20:30;;;;;;;15.18;8.60;;;;;17.30;101898.00;;;;5043124;28;20230;-81
2021/11/17 11:23:18;;;;;;;17.48;8.65;;;;;17.40;101893.00;;;;5031393;28;20216;-80
2021/11/17 11:26:05;;;;;;;16.63;9.88;;;;;17.50;101899.00;;;;5041088;28;20362;-80
2021/11/17 11:28:38;;;;;;;16.27;9.02;;;;;17.50;101895.00;;;;5037202;28;20204;-80
2021/11/17 11:31:38;;;;;;;19.35;8.70;;;;;17.50;101886.00;;;;5045015;28;20211;-81
2021/11/17 11:34:41;;;;;;;14.73;8.10;;;;;17.60;101882.00;;;;4977225;28;20213;-80
2021/11/17 11:37:33;;;;;;;13.48;8.07;;;;;17.70;101883.00;;;;5040073;28;20681;-80
2021/11/17 11:40:08;;;;;;;14.40;8.18;;;;;17.80;101884.00;;;;5028761;28;20223;-81
2021/11/17 11:43:10;;;;;;;15.65;7.90;;;;;17.80;101881.00;;;;5044630;28;20661;-81
2021/11/17 11:45:45;;;;;;;14.55;9.05;;;;;17.90;101887.00;;;;5032660;28;20690;-81
2021/11/17 11:48:35;;;;;;;13.90;8.27;;;;;18.10;101878.00;;;;5040190;28;20215;-82
2021/11/17 11:51:28;;;;;;;15.88;8.35;;;;;18.10;101881.00;;;;5028909;28;20322;-81
2021/11/17 11:54:14;;;;;;;13.98;7.82;;;;;18.10;101885.00;;;;5041878;28;20254;-81
2021/11/17 11:56:48;;;;;;;12.98;7.50;;;;;18.20;101890.00;;;;5047021;28;20700;-80
2021/11/17 11:59:19;;;;;;;13.20;7.55;;;;;18.20;101890.00;;;;5047001;28;20715;-80
2021/11/17 12:01:47;;;;;;;14.57;8.70;;;;;18.30;101883.00;;;;5028499;28;20193;-80
2021/11/17 12:04:21;;;;;;;18.58;7.57;;;;;18.30;101886.00;;;;5039144;28;20200;-81
2021/11/17 12:06:57;;;;;;;11.98;7.25;;;;;18.20;101887.00;;;;5028665;28;20227;-79
2021/11/17 12:09:32;;;;;;;13.73;7.30;;;;;18.20;101892.00;;;;5033902;28;20223;-80
2021/11/17 12:12:07;;;;;;;13.02;7.15;;;;;18.20;101894.00;;;;5035198;28;20227;-80
2021/11/17 12:14:44;;;;;;;15.13;6.65;;;;;18.20;101899.00;;;;5036251;28;20222;-80
2021/11/17 12:17:13;;;;;;;9.05;5.70;;;;;18.20;101900.00;;;;5031479;28;20204;-79
2021/11/17 12:19:48;;;;;;;8.30;5.15;;;;;18.20;101892.00;;;;5038712;28;20224;-81
2021/11/17 12:22:18;;;;;;;8.95;4.18;;;;;18.20;101892.00;;;;5039387;28;20202;-79
2021/11/17 12:24:52;;;;;;;7.47;3.42;;;;;18.20;101897.00;;;;5043194;28;20200;-79
2021/11/17 12:27:21;;;;;;;6.63;2.78;;;;;18.20;101900.00;;;;5040225;28;20446;-80
2021/11/17 12:29:55;;;;;;;7.32;2.95;;;;;18.20;101900.00;;;;5044687;28;20210;-80
2021/11/17 12:32:32;;;;;;;6.40;1.83;;;;;18.20;101905.00;;;;5051010;28;20203;-79
2021/11/17 12:35:20;;;;;;;6.20;2.33;;;;;18.20;101910.00;;;;5051871;28;20207;-80
2021/11/17 12:37:50;;;;;;;6.05;2.30;;;;;18.40;101905.00;;;;5041976;28;20281;-79
2021/11/17 12:40:31;;;;;;;4.57;1.63;;;;;18.40;101905.00;;;;5033702;28;20246;-80
2021/11/17 12:43:00;;;;;;;2.95;1.42;;;;;18.40;101913.00;;;;5036687;28;20223;-80
2021/11/17 12:45:31;;;;;;;3.85;1.65;;;;;18.40;101917.00;;;;5047308;28;20674;-80
2021/11/17 12:48:01;;;;;;;4.35;1.45;;;;;18.60;101906.00;;;;5046941;28;20837;-80
2021/11/17 12:50:32;;;;;;;8.82;1.50;;;;;18.70;101911.00;;;;5038238;28;20673;-81
2021/11/17 12:53:03;;;;;;;10.45;1.45;;;;;18.90;101915.00;;;;5032691;28;20199;-80
2021/11/17 12:55:40;;;;;;;6.10;1.30;;;;;19.20;101914.00;;;;5035066;28;20207;-81
2021/11/17 12:58:11;;;;;;;4.72;1.05;;;;;19.40;101917.00;;;;5030378;28;20684;-80
2021/11/17 13:00:57;;;;;;;7.97;1.73;;;;;19.60;101921.00;;;;5033628;28;20656;-82
2021/11/17 13:03:29;;;;;;;6.03;1.45;;;;;20.00;101925.00;;;;5040896;28;20207;-81
2021/11/17 13:06:18;;;;;;;5.60;1.33;;;;;20.20;101924.00;;;;5034700;28;20192;-80
2021/11/17 13:08:46;;;;;;;8.02;1.33;;;;;20.60;101925.00;;;;5040946;28;20250;-80
2021/11/17 13:11:19;;;;;;;7.72;1.70;;;;;20.80;101921.00;;;;5036682;28;20191;-84
2021/11/17 13:13:50;;;;;;;5.75;1.27;;;;;20.90;101926.00;;;;5044351;28;20212;-83
2021/11/17 13:16:24;;;;;;;4.95;1.23;;;;;20.80;101923.00;;;;5030916;28;20196;-80
2021/11/17 13:18:55;;;;;;;9.98;2.10;;;;;20.70;101924.00;;;;5031615;28;20278;-83
2021/11/17 13:21:35;;;;;;;7.25;1.40;;;;;20.40;101935.00;;;;5042089;28;20601;-82
2021/11/17 13:24:21;;;;;;;5.53;1.63;;;;;20.30;101938.00;;;;5030943;28;20212;-81
2021/11/17 13:26:52;;;;;;;4.90;1.08;;;;;20.20;101950.00;;;;5040115;28;20203;-82
2021/11/17 13:29:23;;;;;;;6.18;2.15;;;;;20.00;101955.00;;;;5049010;28;20207;-81
2021/11/17 13:31:52;;;;;;;4.40;0.88;;;;;19.90;101946.00;;;;5034959;28;20552;-82
2021/11/17 13:34:35;;;;;;;8.48;1.83;;;;;19.60;101946.00;;;;5033000;28;20214;-82
2021/11/17 13:37:24;;;;;;;6.60;1.63;;;;;19.30;101947.00;;;;5034993;28;20195;-81
2021/11/17 13:39:57;;;;;;;3.50;1.25;;;;;19.40;101942.00;;;;5038158;28;20223;-82
2021/11/17 13:42:27;;;;;;;6.22;1.20;;;;;19.50;101948.00;;;;5050167;28;20212;-82
2021/11/17 13:44:56;;;;;;;5.97;1.60;;;;;19.70;101938.00;;;;5035988;28;20215;-81
2021/11/17 13:47:24;;;;;;;6.70;2.28;;;;;19.80;101936.00;;;;5039099;28;20211;-80
2021/11/17 13:49:55;;;;;;;5.30;1.13;;;;;19.80;101940.00;;;;5034921;28;20278;-81
2021/11/17 13:52:26;;;;;;;5.03;0.98;;;;;19.70;101939.00;;;;5038203;28;20613;-81
2021/11/17 13:54:55;;;;;;;4.28;1.33;;;;;19.60;101941.00;;;;5035409;28;20195;-83
2021/11/17 13:57:25;;;;;;;4.05;1.30;;;;;19.60;101948.00;;;;5045328;28;20211;-82
2021/11/17 13:59:53;;;;;;;8.20;1.30;;;;;19.50;101945.00;;;;5049906;28;20223;-83
2021/11/17 14:02:21;;;;;;;9.20;1.50;;;;;19.40;101955.00;;;;5050226;28;20199;-82
2021/11/17 14:04:48;;;;;;;6.18;1.40;;;;;19.40;101960.00;;;;5037496;28;20206;-81
2021/11/17 14:07:18;;;;;;;6.90;1.23;;;;;19.30;101964.00;;;;5029367;28;20577;-83
2021/11/17 14:09:46;;;;;;;4.50;1.23;;;;;19.20;101961.00;;;;5034676;28;20716;-79
2021/11/17 14:12:14;;;;;;;4.45;1.30;;;;;19.10;101967.00;;;;5029418;28;20200;-83
2021/11/17 14:14:43;;;;;;;3.92;1.13;;;;;19.00;101976.00;;;;5029697;28;20188;-82
2021/11/17 14:17:11;;;;;;;5.10;1.15;;;;;18.90;101988.00;;;;5040043;28;20200;-81
2021/11/17 14:19:39;;;;;;;3.35;1.02;;;;;18.80;101995.00;;;;5048174;28;20241;-81
2021/11/17 14:22:07;;;;;;;6.68;0.90;;;;;18.70;101997.00;;;;5035130;28;20247;-81
2021/11/17 14:24:35;;;;;;;2.78;0.88;;;;;18.60;101998.00;;;;5030206;28;20220;-81
2021/11/17 14:27:05;;;;;;;5.65;0.90;;;;;18.50;101992.00;;;;5029621;28;20223;-82
2021/11/17 14:29:50;;;;;;;3.55;0.85;;;;;18.20;101998.00;;;;5036961;28;20199;-82
2021/11/17 14:32:19;;;;;;;3.10;1.17;;;;;18.20;102001.00;;;;5034602;28;20192;-81
2021/11/17 14:34:47;;;;;;;6.00;1.55;;;;;18.10;102003.00;;;;5036164;28;20208;-83
2021/11/17 14:37:15;;;;;;;7.53;1.95;;;;;18.10;102008.00;;;;5045830;28;20195;-82
2021/11/17 14:39:44;;;;;;;5.55;1.20;;;;;18.00;102003.00;;;;5034000;28;20207;-81
2021/11/17 14:42:13;;;;;;;3.70;1.30;;;;;17.90;101997.00;;;;5045494;28;20209;-80
2021/11/17 14:44:41;;;;;;;6.30;1.50;;;;;17.80;102000.00;;;;5040184;28;20199;-81
2021/11/17 14:47:11;;;;;;;2.63;1.20;;;;;17.70;102005.00;;;;5037625;28;20547;-81
2021/11/17 14:49:39;;;;;;;4.18;0.95;;;;;17.70;102004.00;;;;5037969;28;20196;-82
2021/11/17 14:52:09;;;;;;;5.47;1.10;;;;;17.60;102009.00;;;;5037523;28;20302;-81
2021/11/17 14:54:37;;;;;;;4.78;1.52;;;;;17.60;102011.00;;;;5046713;28;20212;-81
2021/11/17 14:57:06;;;;;;;5.68;1.52;;;;;17.50;102005.00;;;;5029699;28;20215;-81
2021/11/17 14:59:35;;;;;;;4.95;1.40;;;;;17.50;102004.00;;;;5047488;28;20200;-80
2021/11/17 15:02:02;;;;;;;2.85;1.50;;;;;17.40;102004.00;;;;5048890;28;20223;-81
2021/11/17 15:04:34;;;;;;;6.90;2.08;;;;;17.40;102000.00;;;;5034301;28;20192;-80
2021/11/17 15:07:02;;;;;;;2.72;1.02;;;;;17.30;102003.00;;;;5029374;28;20883;-81
2021/11/17 15:09:29;;;;;;;18.38;12.90;;;;;17.30;102007.00;;;;5029574;28;20204;-81